createdAt,value
2023-09-17T00:01:47.969Z,100807.38
2023-09-17T00:04:17.867Z,100807.09
2023-09-17T00:06:44.768Z,100797.97
2023-09-17T00:09:17.124Z,100803.22
2023-09-17T00:11:43.907Z,100786.88
2023-09-17T00:14:13.965Z,100803.00
2023-09-17T00:16:41.125Z,100799.63
2023-09-17T00:19:16.296Z,100810.34
2023-09-17T00:21:43.106Z,100809.13
2023-09-17T00:24:17.625Z,100794.94
2023-09-17T00:26:44.335Z,100803.28
2023-09-17T00:29:19.984Z,100794.47
2023-09-17T00:31:46.730Z,100793.31
2023-09-17T00:34:22.692Z,100814.16
2023-09-17T00:36:58.661Z,100796.41
2023-09-17T00:39:37.941Z,100801.66
2023-09-17T00:42:21.466Z,100790.47
2023-09-17T00:44:51.284Z,100788.84
2023-09-17T00:47:22.886Z,100792.44
2023-09-17T00:49:52.802Z,100783.97
2023-09-17T00:52:22.144Z,100783.84
2023-09-17T00:54:52.566Z,100807.22
2023-09-17T00:57:26.527Z,100792.31
2023-09-17T00:59:53.980Z,100779.81
2023-09-17T01:02:27.908Z,100776.22
2023-09-17T01:04:57.571Z,100794.84
2023-09-17T01:07:24.735Z,100789.09
2023-09-17T01:09:52.465Z,100785.06
2023-09-17T01:12:22.038Z,100791.66
2023-09-17T01:14:49.144Z,100794.53
2023-09-17T01:17:22.495Z,100789.28
2023-09-17T01:22:51.936Z,100775.28
2023-09-17T01:26:09.573Z,100793.56
2023-09-17T01:28:45.509Z,100784.13
2023-09-17T01:31:25.971Z,100784.13
2023-09-17T01:33:54.547Z,100785.72
2023-09-17T01:36:45.249Z,100787.94
2023-09-17T01:39:35.048Z,100788.31
2023-09-17T01:42:05.903Z,100809.50
2023-09-17T01:44:41.730Z,100810.88
2023-09-17T01:47:17.640Z,100800.06
2023-09-17T01:52:45.841Z,100803.78
2023-09-17T01:55:38.426Z,100808.00
2023-09-17T01:58:03.341Z,100794.81
2023-09-17T02:00:42.330Z,100801.22
2023-09-17T02:03:09.518Z,100793.94
2023-09-17T02:05:36.616Z,100805.56
2023-09-17T02:08:03.712Z,100802.63
2023-09-17T02:10:30.540Z,100803.06
2023-09-17T02:12:59.951Z,100809.09
2023-09-17T02:15:27.102Z,100811.94
2023-09-17T02:17:55.747Z,100801.16
2023-09-17T02:20:25.467Z,100799.41
2023-09-17T02:22:55.266Z,100799.22
2023-09-17T02:25:25.535Z,100802.91
2023-09-17T02:27:52.284Z,100792.88
2023-09-17T02:30:38.381Z,100808.72
2023-09-17T02:33:05.699Z,100813.63
2023-09-17T02:35:54.161Z,100807.34
2023-09-17T02:38:30.606Z,100794.97
2023-09-17T02:43:45.236Z,100787.75
2023-09-17T02:46:12.566Z,100814.19
2023-09-17T02:48:54.844Z,100803.00
2023-09-17T02:51:28.744Z,100792.88
2023-09-17T02:53:58.018Z,100788.09
2023-09-17T02:56:37.730Z,100804.72
2023-09-17T02:59:04.739Z,100801.69
2023-09-17T03:01:31.533Z,100794.63
2023-09-17T03:03:58.671Z,100791.25
2023-09-17T03:06:28.383Z,100789.75
2023-09-17T03:08:59.811Z,100804.66
2023-09-17T03:11:29.634Z,100798.75
2023-09-17T03:16:56.784Z,100788.50
2023-09-17T03:19:30.044Z,100808.53
2023-09-17T03:21:59.872Z,100797.22
2023-09-17T03:24:29.524Z,100791.53
2023-09-17T03:26:56.316Z,100789.69
2023-09-17T03:29:28.913Z,100787.53
2023-09-17T03:31:58.821Z,100796.63
2023-09-17T03:34:25.618Z,100791.59
2023-09-17T03:36:55.335Z,100792.75
2023-09-17T03:39:31.638Z,100770.88
2023-09-17T03:41:59.707Z,100775.28
2023-09-17T03:44:29.611Z,100786.94
2023-09-17T03:47:02.522Z,100779.94
2023-09-17T03:49:54.779Z,100784.47
2023-09-17T03:52:21.734Z,100787.19
2023-09-17T03:54:51.588Z,100768.31
2023-09-17T03:57:18.327Z,100779.69
2023-09-17T03:59:48.884Z,100781.91
2023-09-17T04:02:16.698Z,100766.16
2023-09-17T04:04:43.465Z,100755.09
2023-09-17T04:07:10.204Z,100766.25
2023-09-17T04:09:37.120Z,100767.97
2023-09-17T04:12:05.918Z,100762.72
2023-09-17T04:14:33.526Z,100767.31
2023-09-17T04:17:02.471Z,100779.03
2023-09-17T04:19:36.618Z,100774.59
2023-09-17T04:22:03.594Z,100779.69
2023-09-17T04:24:53.095Z,100786.13
2023-09-17T04:27:19.758Z,100791.41
2023-09-17T04:29:49.004Z,100777.50
2023-09-17T04:32:18.171Z,100801.44
2023-09-17T04:34:44.950Z,100800.09
2023-09-17T04:37:23.525Z,100792.00
2023-09-17T04:39:50.663Z,100794.41
2023-09-17T04:42:18.314Z,100802.94
2023-09-17T04:44:45.749Z,100806.22
2023-09-17T04:47:15.116Z,100792.53
2023-09-17T04:49:58.545Z,100813.44
2023-09-17T04:52:39.304Z,100801.59
2023-09-17T04:55:07.498Z,100816.22
2023-09-17T04:57:43.660Z,100796.75
2023-09-17T05:00:22.072Z,100810.31
2023-09-17T05:02:50.713Z,100804.28
2023-09-17T05:05:30.947Z,100799.53
2023-09-17T05:07:57.844Z,100810.22
2023-09-17T05:10:24.832Z,100800.91
2023-09-17T05:12:51.674Z,100801.41
2023-09-17T05:15:23.246Z,100816.81
2023-09-17T05:17:50.534Z,100812.44
2023-09-17T05:20:22.799Z,100818.84
2023-09-17T05:22:49.808Z,100820.88
2023-09-17T05:25:16.689Z,100827.88
2023-09-17T05:27:50.742Z,100831.72
2023-09-17T05:30:18.544Z,100834.75
2023-09-17T05:32:48.165Z,100833.53
2023-09-17T05:35:15.275Z,100841.84
2023-09-17T05:37:43.416Z,100846.22
2023-09-17T05:40:10.793Z,100839.75
2023-09-17T05:42:38.861Z,100848.63
2023-09-17T05:45:09.130Z,100837.59
2023-09-17T05:47:40.807Z,100843.47
2023-09-17T05:50:11.311Z,100847.47
2023-09-17T05:52:38.976Z,100859.16
2023-09-17T05:55:06.552Z,100859.69
2023-09-17T05:57:54.646Z,100869.03
2023-09-17T06:00:21.690Z,100870.03
2023-09-17T06:02:48.725Z,100861.78
2023-09-17T06:05:15.670Z,100852.28
2023-09-17T06:07:45.595Z,100864.13
2023-09-17T06:10:25.159Z,100860.16
2023-09-17T06:12:52.072Z,100882.75
2023-09-17T06:15:18.843Z,100876.22
2023-09-17T06:18:02.767Z,100875.22
2023-09-17T06:20:40.464Z,100881.59
2023-09-17T06:23:07.155Z,100885.91
2023-09-17T06:25:39.810Z,100885.66
2023-09-17T06:28:07.568Z,100891.75
2023-09-17T06:30:41.870Z,100872.34
2023-09-17T06:33:09.304Z,100876.97
2023-09-17T06:36:07.721Z,100889.16
2023-09-17T06:38:56.982Z,100880.09
2023-09-17T06:41:27.064Z,100878.34
2023-09-17T06:43:54.090Z,100895.31
2023-09-17T06:46:25.094Z,100896.59
2023-09-17T06:48:53.626Z,100899.03
2023-09-17T06:51:23.508Z,100903.69
2023-09-17T06:53:53.258Z,100904.19
2023-09-17T06:56:20.424Z,100904.69
2023-09-17T06:58:54.661Z,100906.41
2023-09-17T07:01:23.034Z,100910.66
2023-09-17T07:03:53.973Z,100903.34
2023-09-17T07:06:22.299Z,100912.03
2023-09-17T07:08:50.010Z,100903.69
2023-09-17T07:11:19.533Z,100907.78
2023-09-17T07:13:52.533Z,100906.69
2023-09-17T07:16:22.077Z,100909.81
2023-09-17T07:19:03.192Z,100902.47
2023-09-17T07:21:30.174Z,100911.94
2023-09-17T07:31:47.476Z,100907.63
2023-09-17T07:38:39.101Z,100915.72
2023-09-17T07:42:26.421Z,100912.16
2023-09-17T07:53:39.904Z,100930.47
2023-09-17T07:56:06.671Z,100928.56
2023-09-17T07:58:33.468Z,100928.22
2023-09-17T08:01:00.261Z,100931.13
2023-09-17T08:03:27.162Z,100924.34
2023-09-17T08:05:55.353Z,100925.72
2023-09-17T08:08:22.035Z,100941.13
2023-09-17T08:10:50.943Z,100938.94
2023-09-17T08:13:17.862Z,100937.84
2023-09-17T08:15:53.116Z,100942.44
2023-09-17T08:18:19.955Z,100931.09
2023-09-17T08:20:55.669Z,100939.53
2023-09-17T08:23:22.689Z,100936.09
2023-09-17T08:25:56.959Z,100951.38
2023-09-17T08:28:24.059Z,100944.06
2023-09-17T08:30:54.045Z,100938.25
2023-09-17T08:33:20.873Z,100939.66
2023-09-17T08:35:51.069Z,100950.78
2023-09-17T08:38:19.863Z,100962.44
2023-09-17T08:41:22.494Z,100947.81
2023-09-17T08:44:00.249Z,100948.97
2023-09-17T08:46:31.587Z,100954.97
2023-09-17T08:49:02.280Z,100953.91
2023-09-17T08:51:41.742Z,100958.34
2023-09-17T08:54:27.877Z,100951.19
2023-09-17T08:57:07.946Z,100954.16
2023-09-17T08:59:48.619Z,100941.84
2023-09-17T09:02:35.102Z,100941.47
2023-09-17T09:05:08.058Z,100941.72
2023-09-17T09:07:39.456Z,100926.25
2023-09-17T09:10:15.849Z,100929.97
2023-09-17T09:12:56.040Z,100933.97
2023-09-17T09:15:26.497Z,100935.47
2023-09-17T09:17:56.574Z,100937.09
2023-09-17T09:20:25.618Z,100952.75
2023-09-17T09:22:57.682Z,100933.00
2023-09-17T09:25:29.768Z,100935.97
2023-09-17T09:28:05.355Z,100941.03
2023-09-17T09:30:32.276Z,100941.59
2023-09-17T09:32:59.761Z,100944.25
2023-09-17T09:35:57.246Z,100946.09
2023-09-17T09:38:24.049Z,100931.75
2023-09-17T09:41:05.767Z,100933.66
2023-09-17T09:43:35.000Z,100931.38
2023-09-17T09:46:07.865Z,100930.50
2023-09-17T09:48:46.363Z,100944.59
2023-09-17T10:00:14.593Z,100919.78
2023-09-17T10:03:36.347Z,100908.63
2023-09-17T10:07:45.804Z,100904.16
2023-09-17T10:10:34.533Z,100922.25
2023-09-17T10:13:22.773Z,100921.47
2023-09-17T10:23:33.405Z,100911.81
2023-09-17T10:26:48.166Z,100908.28
2023-09-17T10:30:43.713Z,100916.44
2023-09-17T10:33:33.531Z,100905.78
2023-09-17T10:36:27.548Z,100907.97
2023-09-17T11:20:52.488Z,100915.44
2023-09-17T11:23:21.313Z,100905.97
2023-09-17T11:26:06.097Z,100889.75
2023-09-17T11:28:42.586Z,100907.31
2023-09-17T11:31:14.314Z,100909.34
2023-09-17T11:33:46.765Z,100907.00
2023-09-17T11:36:17.190Z,100893.03
2023-09-17T11:38:48.579Z,100894.09
2023-09-17T11:41:41.660Z,100887.16
2023-09-17T11:44:08.556Z,100895.00
2023-09-17T11:46:36.459Z,100886.63
2023-09-17T11:49:09.267Z,100896.34
2023-09-17T11:51:49.827Z,100880.59
2023-09-17T11:54:19.949Z,100880.34
2023-09-17T11:56:55.019Z,100884.03
2023-09-17T11:59:25.149Z,100894.25
2023-09-17T12:02:13.278Z,100904.59
2023-09-17T12:04:51.251Z,100895.66
2023-09-17T12:07:23.722Z,100914.50
2023-09-17T12:10:06.355Z,100899.72
2023-09-17T12:12:37.452Z,100899.72
2023-09-17T12:15:13.178Z,100905.09
2023-09-17T12:17:47.441Z,100902.69
2023-09-17T12:21:07.946Z,100905.03
2023-09-17T12:24:01.823Z,100895.84
2023-09-17T12:27:17.351Z,100897.34
2023-09-17T12:29:44.273Z,100893.25
2023-09-17T12:32:13.722Z,100888.56
2023-09-17T12:34:42.272Z,100891.41
2023-09-17T12:40:00.344Z,100884.19
2023-09-17T12:42:27.182Z,100886.81
2023-09-17T12:44:54.773Z,100881.34
2023-09-17T12:47:28.839Z,100875.34
2023-09-17T12:49:56.141Z,100872.38
2023-09-17T12:52:24.293Z,100864.75
2023-09-17T12:54:56.344Z,100868.38
2023-09-17T12:57:23.940Z,100872.97
2023-09-17T12:59:52.668Z,100868.03
2023-09-17T13:02:42.383Z,100853.22
2023-09-17T13:05:21.067Z,100859.97
2023-09-17T13:07:52.107Z,100857.06
2023-09-17T13:10:22.688Z,100854.91
2023-09-17T13:12:50.791Z,100844.84
2023-09-17T13:15:22.888Z,100846.91
2023-09-17T13:17:49.800Z,100843.03
2023-09-17T13:20:22.725Z,100847.13
2023-09-17T13:22:49.885Z,100835.84
2023-09-17T13:25:17.783Z,100848.81
2023-09-17T13:27:44.654Z,100846.28
2023-09-17T13:30:20.775Z,100843.16
2023-09-17T13:33:03.716Z,100844.13
2023-09-17T13:40:31.112Z,100839.47
2023-09-17T13:46:50.686Z,100829.59
2023-09-17T13:49:17.582Z,100810.41
2023-09-17T13:51:44.283Z,100823.72
2023-09-17T13:54:24.628Z,100803.06
2023-09-17T13:56:51.518Z,100810.13
2023-09-17T13:59:18.480Z,100824.53
2023-09-17T14:01:47.656Z,100818.53
2023-09-17T14:04:16.964Z,100819.75
2023-09-17T14:06:55.233Z,100822.81
2023-09-17T14:09:23.395Z,100819.91
2023-09-17T14:11:50.253Z,100820.94
2023-09-17T14:14:17.178Z,100822.63
2023-09-17T14:16:51.957Z,100810.88
2023-09-17T14:19:24.328Z,100822.16
2023-09-17T14:22:07.257Z,100815.88
2023-09-17T14:24:43.952Z,100801.13
2023-09-17T14:27:14.063Z,100810.63
2023-09-17T14:29:44.444Z,100808.25
2023-09-17T14:32:14.739Z,100799.50
2023-09-17T14:34:43.058Z,100789.72
2023-09-17T14:37:15.931Z,100803.97
2023-09-17T14:39:42.780Z,100790.47
2023-09-17T14:42:18.939Z,100797.41
2023-09-17T14:44:45.874Z,100787.94
2023-09-17T14:49:42.751Z,100797.63
2023-09-17T14:52:15.881Z,100806.00
2023-09-17T14:55:08.169Z,100784.31
2023-09-17T14:57:39.599Z,100783.22
2023-09-17T15:00:19.144Z,100783.50
2023-09-17T15:02:53.153Z,100787.19
2023-09-17T15:05:22.342Z,100783.00
2023-09-17T15:07:52.116Z,100763.50
2023-09-17T15:10:22.002Z,100770.19
2023-09-17T15:12:49.970Z,100759.88
2023-09-17T15:18:21.030Z,100760.13
2023-09-17T15:21:09.808Z,100760.59
2023-09-17T15:23:37.613Z,100766.22
2023-09-17T15:26:18.309Z,100764.56
2023-09-17T15:28:46.190Z,100760.22
2023-09-17T15:31:24.636Z,100769.91
2023-09-17T15:33:56.919Z,100756.19
2023-09-17T15:36:24.055Z,100750.56
2023-09-17T15:38:50.937Z,100752.53
2023-09-17T15:41:18.206Z,100739.69
2023-09-17T15:43:44.883Z,100743.47
2023-09-17T15:46:24.562Z,100735.59
2023-09-17T15:48:52.223Z,100738.44
2023-09-17T15:51:19.371Z,100751.91
2023-09-17T15:53:48.283Z,100752.59
2023-09-17T15:56:27.347Z,100753.88
2023-09-17T15:59:04.823Z,100740.66
2023-09-17T16:01:31.687Z,100734.19
2023-09-17T16:03:58.493Z,100751.66
2023-09-17T16:06:25.727Z,100749.13
2023-09-17T16:09:00.706Z,100757.06
2023-09-17T16:11:29.569Z,100741.75
2023-09-17T16:13:56.383Z,100748.91
2023-09-17T16:16:26.411Z,100744.31
2023-09-17T16:18:53.129Z,100747.19
2023-09-17T16:21:22.981Z,100751.78
2023-09-17T16:23:52.666Z,100749.50
2023-09-17T16:26:22.612Z,100733.47
2023-09-17T16:28:49.405Z,100728.69
2023-09-17T16:31:18.423Z,100732.53
2023-09-17T16:33:45.530Z,100709.97
2023-09-17T16:36:12.300Z,100730.84
2023-09-17T16:38:42.109Z,100730.69
2023-09-17T16:41:15.394Z,100715.94
2023-09-17T16:43:42.370Z,100729.59
2023-09-17T16:46:12.605Z,100720.69
2023-09-17T16:48:44.194Z,100733.78
2023-09-17T16:51:10.891Z,100732.53
2023-09-17T16:53:39.940Z,100727.47
2023-09-17T16:56:12.663Z,100720.31
2023-09-17T16:58:39.385Z,100726.81
2023-09-17T17:01:06.264Z,100704.53
2023-09-17T17:03:33.138Z,100711.47
2023-09-17T17:06:10.619Z,100720.50
2023-09-17T17:08:37.342Z,100707.03
2023-09-17T17:11:04.126Z,100716.66
2023-09-17T17:13:30.777Z,100715.84
2023-09-17T17:15:57.462Z,100704.03
2023-09-17T17:18:29.576Z,100696.63
2023-09-17T17:20:56.247Z,100695.44
2023-09-17T17:23:27.824Z,100693.56
2023-09-17T17:25:54.842Z,100690.63
2023-09-17T17:28:32.880Z,100704.97
2023-09-17T17:31:05.531Z,100711.06
2023-09-17T17:33:41.884Z,100709.16
2023-09-17T17:36:08.768Z,100700.38
2023-09-17T17:38:35.711Z,100694.09
2023-09-17T17:44:38.642Z,100686.75
2023-09-17T17:47:22.769Z,100685.03
2023-09-17T17:54:50.686Z,100690.16
2023-09-17T17:57:50.950Z,100686.78
2023-09-17T18:01:29.753Z,100691.59
2023-09-17T18:04:48.983Z,100678.16
2023-09-17T18:09:07.288Z,100676.66
2023-09-17T18:11:57.690Z,100677.91
2023-09-17T18:15:35.369Z,100690.31
2023-09-17T18:18:46.569Z,100681.47
2023-09-17T18:21:20.495Z,100667.97
2023-09-17T18:27:43.981Z,100658.25
2023-09-17T18:33:20.135Z,100658.78
2023-09-17T18:39:44.427Z,100667.03
2023-09-17T18:42:44.276Z,100671.38
2023-09-17T18:45:35.190Z,100666.09
2023-09-17T18:48:21.698Z,100664.03
2023-09-17T18:51:35.925Z,100682.91
2023-09-17T18:55:08.203Z,100650.22
2023-09-17T18:57:43.161Z,100673.00
2023-09-17T19:02:56.715Z,100667.13
2023-09-17T19:05:23.640Z,100663.34
2023-09-17T19:07:50.392Z,100668.16
2023-09-17T19:10:21.018Z,100673.34
2023-09-17T19:13:09.042Z,100650.22
2023-09-17T19:16:11.851Z,100656.31
2023-09-17T19:18:47.131Z,100652.13
2023-09-17T19:21:21.512Z,100656.56
2023-09-17T19:23:49.049Z,100643.91
2023-09-17T19:26:25.235Z,100635.78
2023-09-17T19:28:55.438Z,100650.13
2023-09-17T19:31:39.888Z,100635.47
2023-09-17T19:42:36.568Z,100623.91
2023-09-17T19:45:03.812Z,100631.00
2023-09-17T19:47:38.259Z,100629.13
2023-09-17T19:50:06.313Z,100619.00
2023-09-17T19:52:39.588Z,100624.66
2023-09-17T19:55:11.426Z,100616.03
2023-09-17T19:57:38.398Z,100607.44
2023-09-17T20:00:07.435Z,100597.13
2023-09-17T20:02:44.790Z,100611.44
2023-09-17T20:05:11.633Z,100597.56
2023-09-17T20:07:41.371Z,100597.13
2023-09-17T20:10:24.419Z,100583.94
2023-09-17T20:12:54.157Z,100571.94
2023-09-17T20:15:28.701Z,100589.84
2023-09-17T20:18:02.028Z,100581.81
2023-09-17T20:20:42.376Z,100575.75
2023-09-17T20:23:14.347Z,100573.59
2023-09-17T20:26:11.139Z,100584.41
2023-09-17T20:28:41.462Z,100574.94
2023-09-17T20:31:08.429Z,100569.69
2023-09-17T20:33:48.883Z,100573.72
2023-09-17T20:36:15.868Z,100562.75
2023-09-17T20:38:47.121Z,100567.78
2023-09-17T20:41:13.834Z,100582.16
2023-09-17T20:43:40.935Z,100579.78
2023-09-17T20:46:13.865Z,100589.88
2023-09-17T20:48:40.576Z,100585.88
2023-09-17T20:51:16.696Z,100568.88
2023-09-17T20:53:43.442Z,100559.19
2023-09-17T20:56:10.173Z,100584.84
2023-09-17T20:58:37.693Z,100573.72
2023-09-17T21:01:13.513Z,100566.13
2023-09-17T21:03:44.421Z,100560.91
2023-09-17T21:06:12.453Z,100577.50
2023-09-17T21:08:42.057Z,100562.19
2023-09-17T21:11:22.814Z,100569.75
2023-09-17T21:13:49.508Z,100569.75
2023-09-17T21:16:26.634Z,100559.41
2023-09-17T21:18:56.290Z,100553.31
2023-09-17T21:21:23.308Z,100544.06
2023-09-17T21:23:50.090Z,100531.84
2023-09-17T21:26:26.374Z,100527.50
2023-09-17T21:28:54.195Z,100524.97
2023-09-17T21:31:29.897Z,100537.81
2023-09-17T21:33:56.574Z,100537.63
2023-09-17T21:36:26.394Z,100525.41
2023-09-17T21:38:53.640Z,100526.28
2023-09-17T21:41:27.108Z,100518.91
2023-09-17T21:44:12.124Z,100519.78
2023-09-17T21:46:47.656Z,100526.13
2023-09-17T21:49:14.562Z,100523.78
2023-09-17T21:51:44.252Z,100521.44
2023-09-17T21:54:11.011Z,100522.72
2023-09-17T21:56:51.037Z,100510.31
2023-09-17T21:59:17.999Z,100528.00
2023-09-17T22:01:50.021Z,100516.41
2023-09-17T22:04:19.173Z,100507.19
2023-09-17T22:06:45.875Z,100517.31
2023-09-17T22:09:15.651Z,100514.56
2023-09-17T22:11:51.232Z,100509.75
2023-09-17T22:14:20.186Z,100503.25
2023-09-17T22:16:49.371Z,100505.34
2023-09-17T22:19:16.015Z,100508.34
2023-09-17T22:21:48.939Z,100502.22
2023-09-17T22:24:15.746Z,100503.94
2023-09-17T22:26:55.215Z,100496.97
2023-09-17T22:29:29.577Z,100496.34
2023-09-17T22:32:03.477Z,100493.22
2023-09-17T22:34:30.111Z,100488.75
2023-09-17T22:37:08.697Z,100481.00
2023-09-17T22:39:40.081Z,100485.84
2023-09-17T22:42:06.889Z,100473.88
2023-09-17T22:44:39.419Z,100477.66
2023-09-17T22:47:07.397Z,100464.66
2023-09-17T22:49:36.770Z,100482.94
2023-09-17T22:52:09.128Z,100484.22
2023-09-17T22:54:35.857Z,100475.13
2023-09-17T22:57:02.549Z,100472.22
2023-09-17T22:59:35.036Z,100468.88
2023-09-17T23:02:01.937Z,100469.94
2023-09-17T23:04:28.810Z,100472.00
2023-09-17T23:07:00.076Z,100459.03
2023-09-17T23:09:46.875Z,100455.72
2023-09-17T23:12:14.378Z,100462.41
2023-09-17T23:14:41.143Z,100470.59
2023-09-17T23:17:07.862Z,100471.88
2023-09-17T23:19:40.064Z,100462.00
2023-09-17T23:22:06.901Z,100456.75
2023-09-17T23:24:33.910Z,100446.88
2023-09-17T23:27:00.668Z,100436.34
2023-09-17T23:29:30.454Z,100450.69
2023-09-17T23:31:57.351Z,100448.56
2023-09-17T23:34:30.624Z,100440.78
2023-09-17T23:37:06.373Z,100449.19
2023-09-17T23:39:37.699Z,100445.84
2023-09-17T23:42:17.132Z,100439.50
2023-09-17T23:44:49.758Z,100441.41
2023-09-17T23:47:32.869Z,100427.75
2023-09-17T23:50:04.710Z,100441.41
2023-09-17T23:52:31.680Z,100415.81
2023-09-17T23:55:05.590Z,100435.13
2023-09-17T23:57:32.239Z,100428.59
2023-09-17T23:59:58.994Z,100430.09
